Time;durP1;ratioP1;P1;durP2;ratioP2;P2;SDS_P1;SDS_P2;PMS_P1;PMS_P2;Temp;Humidity;BMP_temperature;BMP_pressure;BME280_temperature;BME280_humidity;BME280_pressure;Samples;Min_cycle;Max_cycle;Signal;HPM_P1;HPM_P2
2020/12/24 00:00:59;;;;;;;9.88;7.15;;;7.10;94.30;;;;;;4962907;28;20039;-53
2020/12/24 00:03:24;;;;;;;14.48;8.07;;;7.10;94.00;;;;;;4954487;28;20035;-52
2020/12/24 00:05:50;;;;;;;12.75;8.30;;;7.10;93.90;;;;;;4955045;28;20047;-52
2020/12/24 00:08:16;;;;;;;12.90;6.97;;;7.00;94.40;;;;;;4937527;28;20075;-56
2020/12/24 00:10:41;;;;;;;14.98;9.07;;;7.00;94.10;;;;;;4966156;28;20400;-53
2020/12/24 00:13:07;;;;;;;13.05;8.57;;;7.00;94.10;;;;;;4963477;28;20030;-55
2020/12/24 00:15:33;;;;;;;15.00;9.38;;;6.90;94.40;;;;;;4983925;28;20074;-56
2020/12/24 00:17:59;;;;;;;12.48;8.23;;;6.90;94.40;;;;;;4960125;28;20094;-54
2020/12/24 00:20:24;;;;;;;12.98;7.60;;;7.00;94.00;;;;;;4974060;28;20063;-55
2020/12/24 00:22:50;;;;;;;11.65;7.78;;;7.10;94.00;;;;;;4986609;28;20513;-55
2020/12/24 00:25:16;;;;;;;12.02;8.05;;;7.10;93.60;;;;;;4987171;28;20047;-56
2020/12/24 00:27:41;;;;;;;12.05;7.80;;;7.00;93.90;;;;;;4962465;28;20039;-54
2020/12/24 00:30:07;;;;;;;12.40;8.25;;;6.90;93.90;;;;;;4962739;28;20058;-55
2020/12/24 00:32:32;;;;;;;11.35;7.38;;;6.90;94.10;;;;;;4967458;28;20050;-53
2020/12/24 00:34:58;;;;;;;9.90;7.07;;;6.90;94.00;;;;;;4974763;28;20459;-56
2020/12/24 00:37:24;;;;;;;12.60;7.57;;;6.90;93.90;;;;;;4968136;28;20053;-56
2020/12/24 00:39:50;;;;;;;11.57;7.13;;;6.80;93.90;;;;;;4963335;28;20051;-55
2020/12/24 00:42:15;;;;;;;9.40;6.13;;;6.80;94.10;;;;;;4970872;28;20488;-55
2020/12/24 00:44:41;;;;;;;12.98;5.72;;;6.70;94.00;;;;;;4952995;28;20074;-53
2020/12/24 00:47:06;;;;;;;7.80;5.18;;;6.80;93.90;;;;;;4967411;28;20515;-53
2020/12/24 00:49:32;;;;;;;9.07;5.60;;;6.90;93.60;;;;;;4973252;28;20133;-55
2020/12/24 00:51:58;;;;;;;10.65;5.97;;;6.90;93.40;;;;;;4961973;28;20330;-55
2020/12/24 00:54:24;;;;;;;12.25;5.70;;;6.70;93.90;;;;;;4953006;28;20050;-55
2020/12/24 00:56:49;;;;;;;8.48;5.38;;;6.60;94.20;;;;;;4953784;28;20557;-55
2020/12/24 00:59:15;;;;;;;7.78;5.65;;;6.60;94.40;;;;;;4953685;28;20035;-52
2020/12/24 01:01:41;;;;;;;10.77;6.57;;;6.60;94.20;;;;;;4953897;28;20043;-55
2020/12/24 01:04:06;;;;;;;10.65;6.63;;;6.60;94.40;;;;;;4953384;28;20043;-54
2020/12/24 01:06:32;;;;;;;8.52;5.55;;;6.50;94.60;;;;;;4972337;28;20517;-53
2020/12/24 01:08:57;;;;;;;10.65;5.70;;;6.50;94.70;;;;;;4984209;28;20101;-55
2020/12/24 01:11:30;;;;;;;9.43;5.07;;;6.50;94.90;;;;;;4972124;28;20146;-55
2020/12/24 01:13:56;;;;;;;6.25;4.07;;;6.60;94.20;;;;;;4953451;28;20125;-55
2020/12/24 01:16:22;;;;;;;5.88;3.65;;;6.50;94.30;;;;;;4983189;28;20434;-53
2020/12/24 01:18:48;;;;;;;5.75;3.30;;;6.60;93.90;;;;;;4964635;28;20047;-54
2020/12/24 01:21:14;;;;;;;5.15;3.58;;;6.60;93.60;;;;;;4937293;28;20142;-55
2020/12/24 01:23:40;;;;;;;7.15;3.10;;;6.50;93.70;;;;;;4991705;28;20479;-55
2020/12/24 01:26:07;;;;;;;7.20;3.70;;;6.50;93.80;;;;;;4968198;28;20047;-52
2020/12/24 01:28:33;;;;;;;8.10;3.20;;;6.40;94.00;;;;;;4961975;28;20046;-54
2020/12/24 01:30:58;;;;;;;5.75;2.65;;;6.50;93.60;;;;;;4978476;28;20034;-55
2020/12/24 01:33:28;;;;;;;5.95;3.13;;;6.50;93.30;;;;;;4969853;28;20043;-52
2020/12/24 01:35:54;;;;;;;6.28;3.33;;;6.50;93.70;;;;;;4962534;28;20219;-54
2020/12/24 01:38:20;;;;;;;4.95;3.30;;;6.50;93.70;;;;;;4953021;28;20423;-53
2020/12/24 01:40:46;;;;;;;31.50;3.58;;;6.40;94.00;;;;;;4968226;28;20435;-54
2020/12/24 01:43:12;;;;;;;4.10;2.53;;;6.40;94.00;;;;;;4952500;28;20039;-54
2020/12/24 01:45:38;;;;;;;5.72;3.03;;;6.40;93.70;;;;;;4960181;28;20480;-54
2020/12/24 01:48:03;;;;;;;5.57;2.70;;;6.40;93.80;;;;;;4964149;28;20113;-55
2020/12/24 01:50:29;;;;;;;4.47;2.70;;;6.30;94.00;;;;;;4972239;28;20483;-55
2020/12/24 01:52:58;;;;;;;4.93;2.72;;;6.30;94.00;;;;;;4964187;28;20495;-55
2020/12/24 01:55:24;;;;;;;5.15;2.80;;;6.30;94.10;;;;;;4964376;28;20415;-55
2020/12/24 01:57:52;;;;;;;6.50;3.00;;;6.30;94.00;;;;;;4972190;28;20046;-55
2020/12/24 02:00:18;;;;;;;5.60;2.88;;;6.40;93.80;;;;;;4951537;29;20035;-54
2020/12/24 02:02:44;;;;;;;3.33;2.30;;;6.30;94.10;;;;;;4960284;28;20496;-54
2020/12/24 02:05:09;;;;;;;3.55;2.25;;;6.30;94.10;;;;;;4963296;28;20047;-53
2020/12/24 02:07:35;;;;;;;3.50;2.20;;;6.40;93.80;;;;;;4972110;28;20411;-55
2020/12/24 02:10:02;;;;;;;2.28;1.70;;;6.30;93.80;;;;;;4967040;28;20097;-55
2020/12/24 02:12:27;;;;;;;6.03;2.30;;;6.30;93.70;;;;;;4965703;28;20053;-52
2020/12/24 02:14:53;;;;;;;4.85;2.20;;;6.30;93.70;;;;;;4952468;28;20039;-54
2020/12/24 02:17:19;;;;;;;2.65;1.80;;;6.30;93.80;;;;;;4966512;28;20050;-53
2020/12/24 02:19:45;;;;;;;2.72;1.42;;;6.30;93.90;;;;;;4952405;28;20035;-53
2020/12/24 02:22:13;;;;;;;2.83;1.30;;;6.20;93.60;;;;;;4964461;28;20439;-53
2020/12/24 02:24:42;;;;;;;4.57;1.65;;;6.30;92.90;;;;;;4958923;28;20089;-53
2020/12/24 02:27:08;;;;;;;3.13;1.45;;;6.20;93.10;;;;;;4964600;28;20093;-55
2020/12/24 02:29:33;;;;;;;2.38;1.08;;;6.20;92.80;;;;;;4971206;28;20491;-52
2020/12/24 02:31:59;;;;;;;1.85;0.98;;;6.30;92.30;;;;;;4971457;28;20057;-54
2020/12/24 02:34:25;;;;;;;0.90;0.70;;;6.20;92.30;;;;;;4934872;28;20499;-55
2020/12/24 02:36:51;;;;;;;3.83;1.02;;;6.10;91.80;;;;;;4960867;28;20503;-54
2020/12/24 02:39:16;;;;;;;3.65;0.82;;;6.10;91.90;;;;;;4971821;28;20057;-54
2020/12/24 02:41:42;;;;;;;1.77;0.47;;;5.90;92.10;;;;;;4965423;28;20047;-52
2020/12/24 02:44:07;;;;;;;0.80;0.70;;;5.80;92.40;;;;;;4963769;28;20418;-55
2020/12/24 02:46:33;;;;;;;1.17;0.40;;;5.70;92.60;;;;;;4969677;28;20502;-53
2020/12/24 02:48:59;;;;;;;1.85;0.80;;;5.70;92.50;;;;;;4970347;28;20058;-52
2020/12/24 02:51:24;;;;;;;1.88;0.50;;;5.70;92.30;;;;;;4966329;28;20240;-53
2020/12/24 02:53:50;;;;;;;1.77;0.80;;;5.70;92.10;;;;;;4971294;28;20057;-53
2020/12/24 02:56:16;;;;;;;1.33;0.50;;;5.60;91.70;;;;;;4970212;28;20415;-55
2020/12/24 02:58:41;;;;;;;0.93;0.73;;;5.50;92.20;;;;;;4969814;28;20043;-54
2020/12/24 03:01:07;;;;;;;0.30;0.30;;;5.40;92.60;;;;;;4971614;28;20055;-54
2020/12/24 03:03:32;;;;;;;0.43;0.40;;;5.50;92.00;;;;;;4955922;28;20050;-54
2020/12/24 03:05:58;;;;;;;0.43;0.30;;;5.60;91.00;;;;;;4970425;28;20046;-54
2020/12/24 03:08:24;;;;;;;0.77;0.43;;;5.40;91.60;;;;;;4964455;28;20074;-54
2020/12/24 03:10:50;;;;;;;1.88;0.60;;;5.30;92.00;;;;;;4970130;28;20426;-54
2020/12/24 03:13:15;;;;;;;1.38;0.77;;;5.20;92.20;;;;;;4969176;28;20083;-52
2020/12/24 03:15:41;;;;;;;0.60;0.52;;;5.10;92.60;;;;;;4953150;28;20566;-53
2020/12/24 03:18:07;;;;;;;0.60;0.55;;;5.20;92.30;;;;;;4965733;28;20042;-52
2020/12/24 03:20:33;;;;;;;2.03;0.60;;;5.20;91.80;;;;;;4964095;28;20500;-54
2020/12/24 03:22:58;;;;;;;1.77;0.73;;;5.20;92.20;;;;;;4993815;28;20039;-52
2020/12/24 03:25:24;;;;;;;2.60;0.75;;;5.20;91.80;;;;;;4966481;28;20118;-53
2020/12/24 03:27:49;;;;;;;1.25;0.82;;;5.10;92.20;;;;;;4970878;28;20161;-52
2020/12/24 03:30:18;;;;;;;2.70;0.85;;;5.10;92.30;;;;;;4974478;28;20503;-52
2020/12/24 03:32:43;;;;;;;3.13;0.95;;;5.00;92.50;;;;;;4961320;28;20050;-52
2020/12/24 03:35:09;;;;;;;2.55;0.75;;;5.00;92.30;;;;;;4980088;28;20058;-53
2020/12/24 03:37:35;;;;;;;1.58;0.80;;;4.90;92.70;;;;;;4968318;28;20045;-52
2020/12/24 03:40:00;;;;;;;2.28;0.73;;;5.00;92.70;;;;;;4955532;28;20452;-53
2020/12/24 03:42:26;;;;;;;1.58;1.00;;;5.00;92.80;;;;;;4982196;28;20122;-52
2020/12/24 03:44:52;;;;;;;1.95;1.02;;;4.90;93.00;;;;;;4965784;28;20487;-51
2020/12/24 03:47:17;;;;;;;4.20;1.25;;;5.00;93.00;;;;;;5000292;23;20116;-49
2020/12/24 03:49:43;;;;;;;3.88;1.20;;;4.90;93.20;;;;;;4995452;28;20461;-49
2020/12/24 03:52:09;;;;;;;4.70;1.38;;;4.90;93.40;;;;;;4990398;28;20478;-50
2020/12/24 03:54:34;;;;;;;3.75;1.10;;;4.90;93.80;;;;;;4994390;28;20438;-49
2020/12/24 03:57:00;;;;;;;2.53;1.33;;;5.00;93.70;;;;;;4993975;28;20038;-50
2020/12/24 03:59:26;;;;;;;2.97;1.15;;;5.00;93.40;;;;;;4990342;28;20034;-49
2020/12/24 04:01:51;;;;;;;1.52;1.08;;;5.20;92.70;;;;;;4994515;28;20078;-49
2020/12/24 04:04:17;;;;;;;0.90;0.43;;;5.20;92.60;;;;;;4982269;28;20117;-49
2020/12/24 04:06:42;;;;;;;0.55;0.47;;;5.20;92.00;;;;;;4988268;28;20542;-48
2020/12/24 04:09:08;;;;;;;1.75;0.63;;;5.40;92.20;;;;;;4980703;28;20122;-49
2020/12/24 04:11:34;;;;;;;0.52;0.20;;;5.10;92.00;;;;;;4979900;28;20057;-50
2020/12/24 04:13:59;;;;;;;1.35;0.60;;;5.10;91.90;;;;;;4990728;28;20118;-50
2020/12/24 04:16:29;;;;;;;1.95;0.60;;;5.00;92.00;;;;;;5000327;28;20454;-48
2020/12/24 04:18:55;;;;;;;1.48;0.55;;;5.00;92.10;;;;;;5004637;28;20062;-52
2020/12/24 04:21:21;;;;;;;1.80;0.50;;;5.00;91.90;;;;;;4994511;28;20069;-49
2020/12/24 04:23:49;;;;;;;2.70;0.60;;;4.80;92.60;;;;;;4985722;28;20051;-52
2020/12/24 04:26:21;;;;;;;2.55;0.57;;;4.90;92.50;;;;;;4996003;28;20038;-50
2020/12/24 04:28:47;;;;;;;2.00;0.70;;;4.70;92.60;;;;;;4993361;28;20495;-50
2020/12/24 04:31:13;;;;;;;4.57;0.68;;;4.70;93.00;;;;;;4993451;28;20050;-50
2020/12/24 04:33:40;;;;;;;2.22;0.50;;;4.70;93.20;;;;;;4995550;28;20041;-50
2020/12/24 04:36:06;;;;;;;2.33;0.70;;;4.80;93.10;;;;;;4994091;28;20038;-49
2020/12/24 04:38:32;;;;;;;1.98;0.68;;;4.80;93.10;;;;;;4994959;28;20537;-52
2020/12/24 04:40:58;;;;;;;2.50;0.70;;;4.70;93.10;;;;;;4983752;28;20050;-50
2020/12/24 04:43:28;;;;;;;2.50;0.73;;;4.70;93.50;;;;;;4980417;28;20133;-49
2020/12/24 04:45:55;;;;;;;4.30;0.70;;;4.70;93.40;;;;;;4980920;28;20403;-48
2020/12/24 04:48:21;;;;;;;4.18;0.88;;;4.70;93.70;;;;;;4982655;28;20129;-49
2020/12/24 04:50:51;;;;;;;3.25;1.00;;;4.60;93.90;;;;;;4998914;28;20498;-48
2020/12/24 04:53:18;;;;;;;3.72;1.05;;;4.60;93.80;;;;;;4993776;28;20049;-49
2020/12/24 04:55:44;;;;;;;3.63;0.85;;;4.70;93.90;;;;;;4985749;28;20491;-49
2020/12/24 04:58:10;;;;;;;1.80;0.73;;;4.70;93.70;;;;;;4993679;28;20409;-48
2020/12/24 05:00:39;;;;;;;1.73;0.70;;;4.80;93.20;;;;;;4993287;28;20042;-48
2020/12/24 05:03:07;;;;;;;2.42;0.77;;;4.80;93.00;;;;;;5007204;28;20101;-51
2020/12/24 05:05:34;;;;;;;1.70;0.68;;;4.80;92.80;;;;;;4975887;28;20051;-50
2020/12/24 05:08:02;;;;;;;1.95;0.70;;;4.80;92.60;;;;;;4961908;28;20042;-48
2020/12/24 05:10:28;;;;;;;2.97;0.60;;;4.70;92.50;;;;;;4973982;28;20054;-48
2020/12/24 05:12:54;;;;;;;2.53;0.75;;;4.60;92.90;;;;;;4993938;28;20042;-50
2020/12/24 05:15:31;;;;;;;2.78;0.90;;;4.60;93.00;;;;;;4993263;28;20093;-48
2020/12/24 05:18:19;;;;;;;2.50;0.70;;;4.60;93.40;;;;;;4974390;28;20434;-51
2020/12/24 05:20:45;;;;;;;1.20;0.77;;;4.50;93.50;;;;;;4976268;28;20066;-49
2020/12/24 05:23:13;;;;;;;1.38;0.80;;;4.50;93.60;;;;;;4974000;28;20042;-50
2020/12/24 05:25:39;;;;;;;0.85;0.73;;;4.50;93.80;;;;;;5000209;28;20034;-52
2020/12/24 05:28:05;;;;;;;1.10;0.65;;;4.60;93.50;;;;;;4992785;28;20052;-49
2020/12/24 05:30:32;;;;;;;3.70;0.80;;;4.50;93.60;;;;;;4991482;28;20046;-48
2020/12/24 05:32:59;;;;;;;1.55;0.93;;;4.40;93.80;;;;;;4973486;28;20413;-48
2020/12/24 05:35:26;;;;;;;2.50;0.88;;;4.40;94.10;;;;;;4982088;28;20050;-48
2020/12/24 05:37:53;;;;;;;2.67;1.00;;;4.50;94.10;;;;;;4989071;28;20082;-49
2020/12/24 05:40:29;;;;;;;1.70;0.80;;;4.40;94.10;;;;;;4982604;28;20101;-50
2020/12/24 05:43:00;;;;;;;1.15;0.70;;;4.40;94.30;;;;;;4989832;28;20038;-50
2020/12/24 05:45:29;;;;;;;2.00;1.10;;;4.40;94.10;;;;;;4984241;28;20058;-49
2020/12/24 05:48:14;;;;;;;1.73;0.80;;;4.40;94.30;;;;;;4988682;28;20046;-48
2020/12/24 05:50:44;;;;;;;1.88;0.60;;;4.40;94.40;;;;;;4981591;28;20510;-51
2020/12/24 05:53:16;;;;;;;1.88;0.73;;;4.50;94.20;;;;;;4992781;28;20049;-49
2020/12/24 05:55:45;;;;;;;1.58;0.80;;;4.40;94.20;;;;;;4988742;28;20038;-49
2020/12/24 05:58:11;;;;;;;1.70;1.00;;;4.40;94.30;;;;;;4991911;28;20038;-50
2020/12/24 06:00:41;;;;;;;2.53;0.85;;;4.40;94.50;;;;;;4991732;28;20096;-49
2020/12/24 06:03:17;;;;;;;3.00;0.95;;;4.40;94.70;;;;;;4991157;28;20043;-49
2020/12/24 06:05:52;;;;;;;3.78;1.00;;;4.40;94.60;;;;;;4991700;28;20042;-53
2020/12/24 06:08:22;;;;;;;1.55;0.82;;;4.40;94.50;;;;;;4991382;28;20112;-48
2020/12/24 06:11:08;;;;;;;2.33;1.00;;;4.40;94.70;;;;;;4984419;28;20117;-49
2020/12/24 06:13:35;;;;;;;2.30;0.90;;;4.40;94.70;;;;;;4990988;28;20038;-50
2020/12/24 06:16:09;;;;;;;2.53;0.90;;;4.40;94.60;;;;;;4991612;28;20049;-49
2020/12/24 06:18:39;;;;;;;3.50;0.93;;;4.40;94.60;;;;;;4979303;28;20051;-49
2020/12/24 06:21:19;;;;;;;1.98;0.80;;;4.30;94.70;;;;;;4985572;28;20146;-51
2020/12/24 06:23:58;;;;;;;1.27;0.80;;;4.30;94.70;;;;;;4980674;28;20050;-49
2020/12/24 06:26:28;;;;;;;3.28;1.00;;;4.30;94.70;;;;;;4985318;28;20476;-49
2020/12/24 06:28:58;;;;;;;2.72;0.95;;;4.30;94.70;;;;;;4980834;28;20097;-51
2020/12/24 06:31:25;;;;;;;3.28;1.05;;;4.30;94.80;;;;;;4985749;28;20035;-49
2020/12/24 06:33:50;;;;;;;2.33;0.80;;;4.30;94.80;;;;;;4979344;28;20406;-49
2020/12/24 06:36:36;;;;;;;0.93;0.65;;;4.30;94.80;;;;;;4982683;28;20046;-51
2020/12/24 06:39:03;;;;;;;1.13;0.80;;;4.30;94.90;;;;;;4982812;28;20045;-49
2020/12/24 06:41:36;;;;;;;1.20;0.80;;;4.30;94.80;;;;;;4992065;28;20046;-48
2020/12/24 06:44:03;;;;;;;2.17;0.85;;;4.30;94.80;;;;;;4979551;28;20038;-49
2020/12/24 06:46:28;;;;;;;1.95;0.90;;;4.40;94.80;;;;;;4982575;28;20045;-49
2020/12/24 06:49:05;;;;;;;1.67;1.00;;;4.40;94.70;;;;;;4982334;28;20047;-49
2020/12/24 06:51:49;;;;;;;1.95;1.10;;;4.40;94.80;;;;;;4981097;28;20043;-51
2020/12/24 06:54:19;;;;;;;2.53;1.10;;;4.30;94.80;;;;;;4991761;28;20052;-51
2020/12/24 06:56:45;;;;;;;2.85;1.13;;;4.30;94.70;;;;;;4989262;28;20038;-48
2020/12/24 06:59:20;;;;;;;3.53;1.42;;;4.30;94.70;;;;;;4995289;28;20101;-51
2020/12/24 07:02:03;;;;;;;3.08;1.40;;;4.30;94.80;;;;;;4995291;28;20141;-49
2020/12/24 07:04:36;;;;;;;4.35;1.55;;;4.30;94.70;;;;;;4983377;28;20046;-49
2020/12/24 07:07:02;;;;;;;2.55;1.05;;;4.30;94.80;;;;;;4994553;28;20046;-49
2020/12/24 07:09:30;;;;;;;2.28;1.40;;;4.30;94.70;;;;;;4994952;28;20122;-50
2020/12/24 07:11:57;;;;;;;2.35;1.17;;;4.30;94.80;;;;;;4995550;28;20043;-50
2020/12/24 07:14:24;;;;;;;3.38;1.40;;;4.30;94.80;;;;;;4988892;28;20039;-52
2020/12/24 07:16:53;;;;;;;2.92;1.67;;;4.30;94.80;;;;;;4989399;28;20076;-50
2020/12/24 07:19:21;;;;;;;4.00;1.80;;;4.40;94.90;;;;;;4982626;28;20038;-55
2020/12/24 07:21:52;;;;;;;2.73;1.57;;;4.40;94.80;;;;;;4995261;28;20576;-49
2020/12/24 07:24:29;;;;;;;3.92;1.90;;;4.40;94.90;;;;;;4977810;28;20294;-51
2020/12/24 07:27:00;;;;;;;4.10;2.00;;;4.40;94.90;;;;;;4976967;28;20042;-49
2020/12/24 07:29:28;;;;;;;3.90;1.80;;;4.40;94.90;;;;;;4977499;28;20093;-48
2020/12/24 07:31:55;;;;;;;4.22;2.15;;;4.40;94.90;;;;;;4976333;28;20041;-52
2020/12/24 07:34:30;;;;;;;4.22;1.80;;;4.40;94.90;;;;;;4976886;28;20417;-49
2020/12/24 07:36:55;;;;;;;5.18;2.20;;;4.50;94.90;;;;;;4976069;28;20533;-48
2020/12/24 07:39:22;;;;;;;4.07;2.20;;;4.50;94.80;;;;;;4977033;28;20494;-48
2020/12/24 07:41:48;;;;;;;3.35;2.00;;;4.50;94.80;;;;;;4975929;28;20510;-48
2020/12/24 07:44:18;;;;;;;4.72;2.25;;;4.50;94.70;;;;;;4975917;28;20047;-48
2020/12/24 07:46:49;;;;;;;4.38;2.22;;;4.50;94.70;;;;;;4981535;28;20034;-48
2020/12/24 07:49:20;;;;;;;4.93;2.30;;;4.50;94.70;;;;;;4981804;28;20130;-49
2020/12/24 07:51:57;;;;;;;8.10;2.50;;;4.50;94.70;;;;;;4980172;28;20177;-48
2020/12/24 07:54:25;;;;;;;4.15;2.55;;;4.50;94.70;;;;;;4981237;28;20106;-48
2020/12/24 07:56:51;;;;;;;6.93;2.97;;;4.50;94.70;;;;;;4988773;28;20042;-48
2020/12/24 07:59:18;;;;;;;6.30;2.63;;;4.50;94.70;;;;;;4981842;28;20050;-49
2020/12/24 08:01:44;;;;;;;4.57;2.80;;;4.50;94.60;;;;;;4993757;28;20089;-50
2020/12/24 08:04:09;;;;;;;6.05;3.00;;;4.50;94.70;;;;;;4992297;28;20038;-48
2020/12/24 08:06:36;;;;;;;6.90;2.78;;;4.50;94.70;;;;;;4994173;28;20490;-49
2020/12/24 08:09:17;;;;;;;5.50;3.20;;;4.50;94.70;;;;;;4990471;28;20557;-51
2020/12/24 08:11:58;;;;;;;7.05;3.10;;;4.50;94.80;;;;;;4986658;28;20055;-49
2020/12/24 08:14:28;;;;;;;5.90;3.13;;;4.50;94.70;;;;;;4981643;28;20414;-49
2020/12/24 08:17:12;;;;;;;6.10;3.55;;;4.50;94.70;;;;;;5007116;28;20038;-51
2020/12/24 08:19:52;;;;;;;5.70;3.53;;;4.50;94.80;;;;;;4989415;28;20476;-49
2020/12/24 08:22:23;;;;;;;7.93;3.75;;;4.60;94.80;;;;;;4984737;28;20117;-50
2020/12/24 08:24:54;;;;;;;6.22;3.45;;;4.50;94.70;;;;;;5002006;28;20063;-53
2020/12/24 08:27:21;;;;;;;6.57;3.40;;;4.60;94.80;;;;;;4996618;28;20121;-53
2020/12/24 08:29:48;;;;;;;8.10;3.58;;;4.60;94.80;;;;;;4994655;28;20058;-49
2020/12/24 08:32:15;;;;;;;6.63;3.58;;;4.60;94.80;;;;;;4991951;28;20499;-51
2020/12/24 08:34:41;;;;;;;6.47;3.20;;;4.60;94.80;;;;;;4993064;28;20041;-50
2020/12/24 08:37:07;;;;;;;9.00;3.70;;;4.60;94.70;;;;;;4993438;28;20046;-53
2020/12/24 08:39:32;;;;;;;8.35;3.85;;;4.60;94.80;;;;;;4993202;28;20577;-52
2020/12/24 08:42:00;;;;;;;8.00;3.30;;;4.70;94.80;;;;;;4993624;28;20038;-52
2020/12/24 08:44:26;;;;;;;7.00;3.53;;;4.70;94.80;;;;;;4992872;28;20041;-52
2020/12/24 08:47:05;;;;;;;9.50;3.70;;;4.70;94.80;;;;;;5000833;28;20360;-49
2020/12/24 08:49:31;;;;;;;7.25;3.05;;;4.70;94.80;;;;;;4997658;28;20483;-49
2020/12/24 08:52:17;;;;;;;6.63;3.42;;;4.80;94.80;;;;;;4987810;28;20503;-52
2020/12/24 08:55:03;;;;;;;8.63;3.15;;;4.80;94.80;;;;;;4978745;28;20045;-51
2020/12/24 08:57:32;;;;;;;7.85;2.97;;;4.80;94.90;;;;;;4979169;28;20046;-48
2020/12/24 09:00:08;;;;;;;9.88;3.15;;;4.90;94.90;;;;;;4992769;28;20050;-50
2020/12/24 09:02:37;;;;;;;8.93;3.15;;;4.90;94.90;;;;;;4979268;28;20042;-48
2020/12/24 09:05:06;;;;;;;7.50;3.33;;;4.90;94.90;;;;;;4992687;28;20040;-51
2020/12/24 09:07:39;;;;;;;5.47;2.63;;;4.90;94.80;;;;;;4987597;28;20688;-49
2020/12/24 09:10:13;;;;;;;10.07;3.10;;;5.00;94.90;;;;;;5002589;28;20042;-49
2020/12/24 09:12:46;;;;;;;7.38;2.83;;;5.00;94.90;;;;;;4987710;28;20073;-54
2020/12/24 09:15:14;;;;;;;10.18;2.83;;;5.10;94.90;;;;;;4989625;28;20054;-54
2020/12/24 09:17:57;;;;;;;8.13;2.95;;;5.10;94.90;;;;;;4993898;28;20093;-54
2020/12/24 09:20:29;;;;;;;8.73;3.10;;;5.10;94.80;;;;;;4995439;28;20054;-53
2020/12/24 09:22:57;;;;;;;8.27;2.93;;;5.10;94.80;;;;;;4970573;28;20054;-51
2020/12/24 09:25:34;;;;;;;8.88;3.00;;;5.10;94.90;;;;;;4986090;28;20096;-53
2020/12/24 09:28:02;;;;;;;9.82;3.00;;;5.10;94.80;;;;;;4974644;28;20051;-49
2020/12/24 09:30:29;;;;;;;9.45;3.00;;;5.20;94.80;;;;;;4957004;28;20526;-50
2020/12/24 09:33:00;;;;;;;8.43;2.95;;;5.20;94.80;;;;;;4974534;28;20046;-47
2020/12/24 09:35:27;;;;;;;11.68;2.90;;;5.20;94.80;;;;;;4985384;28;20133;-49
2020/12/24 09:37:54;;;;;;;11.00;2.75;;;5.20;94.80;;;;;;4976648;28;20074;-52
2020/12/24 09:40:22;;;;;;;11.38;2.88;;;5.30;94.80;;;;;;4974449;28;20035;-49
2020/12/24 09:42:49;;;;;;;10.95;2.88;;;5.30;94.80;;;;;;4973821;28;20518;-48
2020/12/24 09:45:15;;;;;;;9.82;2.90;;;5.30;94.80;;;;;;4982073;28;20129;-49
2020/12/24 09:47:44;;;;;;;9.70;2.80;;;5.30;94.80;;;;;;4980153;28;20058;-48
2020/12/24 09:50:11;;;;;;;8.27;2.70;;;5.40;94.80;;;;;;4974986;28;20039;-54
2020/12/24 09:52:37;;;;;;;13.00;2.95;;;5.40;94.80;;;;;;4971047;28;20065;-53
2020/12/24 09:55:04;;;;;;;11.38;3.33;;;5.40;94.80;;;;;;4988764;28;20042;-52
2020/12/24 09:57:32;;;;;;;15.57;2.80;;;5.40;94.80;;;;;;4992355;28;20467;-50
2020/12/24 09:59:57;;;;;;;7.50;2.70;;;5.40;94.80;;;;;;4991796;28;20069;-54
2020/12/24 10:02:26;;;;;;;11.20;2.80;;;5.50;94.90;;;;;;4973975;28;20048;-50
2020/12/24 10:04:55;;;;;;;11.73;2.80;;;5.50;94.90;;;;;;4981502;28;20097;-51
2020/12/24 10:07:22;;;;;;;11.13;3.63;;;5.50;94.80;;;;;;4989873;28;20038;-51
2020/12/24 10:09:53;;;;;;;10.07;2.85;;;5.50;94.80;;;;;;4991631;28;20056;-52
2020/12/24 10:12:22;;;;;;;11.40;2.40;;;5.60;94.90;;;;;;4988924;28;20134;-54
2020/12/24 10:14:49;;;;;;;10.18;2.42;;;5.60;94.80;;;;;;4973387;28;20391;-54
2020/12/24 10:17:15;;;;;;;14.43;2.75;;;5.60;94.80;;;;;;4985782;28;20054;-50
2020/12/24 10:19:45;;;;;;;12.57;3.45;;;5.60;94.80;;;;;;4974317;28;20415;-54
2020/12/24 10:22:12;;;;;;;12.07;1.90;;;5.70;94.80;;;;;;4986677;28;20081;-52
2020/12/24 10:24:40;;;;;;;7.63;2.05;;;5.70;94.80;;;;;;4991624;28;20038;-51
2020/12/24 10:27:07;;;;;;;13.75;2.30;;;5.70;94.70;;;;;;4979069;28;20491;-52
2020/12/24 10:29:33;;;;;;;11.35;2.38;;;5.70;94.80;;;;;;4985796;28;20045;-50
2020/12/24 10:31:58;;;;;;;16.02;2.35;;;5.70;94.70;;;;;;4973931;28;20035;-50
2020/12/24 10:34:24;;;;;;;17.35;2.40;;;5.70;94.70;;;;;;4976410;28;20046;-52
2020/12/24 10:36:50;;;;;;;10.68;1.90;;;5.70;94.60;;;;;;4982469;28;20090;-50
2020/12/24 10:39:15;;;;;;;14.45;2.20;;;5.80;94.60;;;;;;4974890;28;20047;-53
2020/12/24 10:41:41;;;;;;;10.77;2.15;;;5.80;94.50;;;;;;4979972;28;20052;-51
2020/12/24 10:44:08;;;;;;;11.45;2.45;;;5.80;94.60;;;;;;4991335;28;20046;-52
2020/12/24 10:46:34;;;;;;;17.10;2.83;;;5.80;94.50;;;;;;4974521;28;20097;-50
2020/12/24 10:49:00;;;;;;;10.35;2.35;;;5.80;94.40;;;;;;4983566;28;20522;-53
2020/12/24 10:51:26;;;;;;;9.75;3.35;;;5.90;94.50;;;;;;4976857;28;20133;-51
2020/12/24 10:53:52;;;;;;;10.32;1.70;;;5.90;94.40;;;;;;4981269;28;20126;-49
2020/12/24 10:56:17;;;;;;;8.98;1.63;;;5.90;94.30;;;;;;4986486;28;20050;-50
2020/12/24 10:58:44;;;;;;;16.05;2.30;;;5.90;94.10;;;;;;4977640;28;20118;-51
2020/12/24 11:01:11;;;;;;;12.88;2.10;;;5.90;94.20;;;;;;4991571;28;20048;-50
2020/12/24 11:03:37;;;;;;;14.13;2.58;;;5.90;94.20;;;;;;4990914;28;20524;-51
2020/12/24 11:06:06;;;;;;;13.20;2.03;;;6.00;94.20;;;;;;4991340;28;20495;-51
2020/12/24 11:08:33;;;;;;;14.38;1.80;;;6.00;94.20;;;;;;4992027;28;20521;-49
2020/12/24 11:10:59;;;;;;;7.97;1.48;;;6.00;94.10;;;;;;4990982;28;20038;-49
2020/12/24 11:13:24;;;;;;;10.27;1.70;;;6.00;94.10;;;;;;4980617;28;20046;-50
2020/12/24 11:15:50;;;;;;;15.48;1.92;;;6.00;94.10;;;;;;4987245;28;20078;-49
2020/12/24 11:18:16;;;;;;;8.95;1.67;;;6.10;94.10;;;;;;4972358;28;20065;-50
2020/12/24 11:20:41;;;;;;;6.07;1.38;;;6.10;94.00;;;;;;4975141;28;20118;-50
2020/12/24 11:23:07;;;;;;;13.05;1.75;;;6.10;94.00;;;;;;4991486;28;20526;-49
2020/12/24 11:25:33;;;;;;;12.25;1.70;;;6.30;93.90;;;;;;5003805;28;20042;-49
2020/12/24 11:27:59;;;;;;;11.05;1.90;;;6.20;93.90;;;;;;4979154;28;20129;-50
2020/12/24 11:30:24;;;;;;;11.15;1.52;;;6.20;93.90;;;;;;4990482;28;20137;-49
2020/12/24 11:32:50;;;;;;;13.60;2.00;;;6.20;93.80;;;;;;4988182;28;20050;-48
2020/12/24 11:35:17;;;;;;;11.98;1.65;;;6.20;93.80;;;;;;4982090;28;20590;-51
2020/12/24 11:37:44;;;;;;;14.90;2.05;;;6.30;93.80;;;;;;4980428;28;20061;-48
2020/12/24 11:40:13;;;;;;;12.82;2.50;;;6.30;93.80;;;;;;4988115;28;20414;-50
2020/12/24 11:42:39;;;;;;;8.02;1.42;;;6.30;93.60;;;;;;4989376;28;20089;-49
2020/12/24 11:45:05;;;;;;;5.35;1.67;;;6.30;93.60;;;;;;4982267;28;20042;-52
2020/12/24 11:47:34;;;;;;;10.15;1.70;;;6.40;93.50;;;;;;4994856;28;20133;-50
2020/12/24 11:50:00;;;;;;;8.60;1.42;;;6.40;93.40;;;;;;4994811;28;20084;-52
2020/12/24 11:52:25;;;;;;;8.43;1.35;;;6.40;93.40;;;;;;4994649;28;20041;-49
2020/12/24 11:54:51;;;;;;;13.52;1.75;;;6.40;93.20;;;;;;4995664;28;20042;-49
2020/12/24 11:57:17;;;;;;;12.55;1.30;;;6.40;93.20;;;;;;4994478;28;20091;-52
2020/12/24 11:59:42;;;;;;;11.13;1.83;;;6.50;93.20;;;;;;4994645;28;20045;-49
2020/12/24 12:02:08;;;;;;;9.27;1.17;;;6.50;93.00;;;;;;4980451;28;20551;-50
2020/12/24 12:04:35;;;;;;;6.53;1.17;;;6.50;93.10;;;;;;4995367;28;20042;-50
2020/12/24 12:07:01;;;;;;;9.02;1.30;;;6.50;93.00;;;;;;4994931;28;20125;-53
2020/12/24 12:09:28;;;;;;;12.32;1.95;;;6.50;92.90;;;;;;4993431;28;20046;-53
2020/12/24 12:11:54;;;;;;;8.95;1.83;;;6.50;92.80;;;;;;4982371;28;20047;-49
2020/12/24 12:14:20;;;;;;;7.15;1.60;;;6.50;92.80;;;;;;5000986;28;20050;-50
2020/12/24 12:16:49;;;;;;;11.32;2.47;;;6.50;92.80;;;;;;4981455;28;20491;-53
2020/12/24 12:19:15;;;;;;;13.30;1.80;;;6.50;92.70;;;;;;4993314;28;20133;-49
2020/12/24 12:21:41;;;;;;;10.80;1.63;;;6.60;92.90;;;;;;4993157;28;20048;-49
2020/12/24 12:24:06;;;;;;;11.93;1.75;;;6.60;92.90;;;;;;4980961;28;20362;-50
2020/12/24 12:26:32;;;;;;;7.32;2.05;;;6.60;92.90;;;;;;4986894;28;20035;-50
2020/12/24 12:28:58;;;;;;;4.38;1.05;;;6.60;92.80;;;;;;4988683;28;20518;-49
2020/12/24 12:31:24;;;;;;;9.27;1.40;;;6.60;92.60;;;;;;4993442;28;20077;-46
2020/12/24 12:33:52;;;;;;;6.22;1.52;;;6.60;92.70;;;;;;4993557;28;20517;-48
2020/12/24 12:36:19;;;;;;;9.98;1.45;;;6.60;92.70;;;;;;4991100;28;20078;-47
2020/12/24 12:38:47;;;;;;;11.98;1.80;;;6.60;92.70;;;;;;4975790;28;20042;-48
2020/12/24 12:41:14;;;;;;;9.10;1.40;;;6.60;92.80;;;;;;4991179;28;20047;-48
2020/12/24 12:43:43;;;;;;;9.45;1.60;;;6.60;92.60;;;;;;4993422;28;20035;-51
2020/12/24 12:46:08;;;;;;;15.32;1.40;;;6.60;92.70;;;;;;4978969;28;20114;-47
2020/12/24 12:48:35;;;;;;;9.02;1.75;;;6.60;92.70;;;;;;4982774;28;20073;-47
2020/12/24 12:51:01;;;;;;;13.52;1.80;;;6.60;92.60;;;;;;4992842;28;20042;-49
2020/12/24 12:53:26;;;;;;;10.23;1.60;;;6.60;92.80;;;;;;4988117;28;20411;-47
2020/12/24 12:55:52;;;;;;;9.05;1.38;;;6.50;92.70;;;;;;4981886;28;20057;-48
2020/12/24 12:58:18;;;;;;;11.30;1.38;;;6.50;92.70;;;;;;4992783;28;20034;-48